sensor_id;sensor_type;location;lat;lon;timestamp;P1;durP1;ratioP1;P2;durP2;ratioP2
9128;SDS011;4599;50.906;6.786;2022-12-29T00:00:50;0.40;;;0.40;;
9128;SDS011;4599;50.906;6.786;2022-12-29T00:04:51;0.37;;;0.37;;
9128;SDS011;4599;50.906;6.786;2022-12-29T00:08:53;0.53;;;0.43;;
9128;SDS011;4599;50.906;6.786;2022-12-29T00:12:55;1.40;;;0.50;;
9128;SDS011;4599;50.906;6.786;2022-12-29T00:16:57;0.40;;;0.40;;
9128;SDS011;4599;50.906;6.786;2022-12-29T00:20:58;0.50;;;0.50;;
9128;SDS011;4599;50.906;6.786;2022-12-29T00:25:00;0.53;;;0.53;;
9128;SDS011;4599;50.906;6.786;2022-12-29T00:29:03;0.33;;;0.33;;
9128;SDS011;4599;50.906;6.786;2022-12-29T00:33:08;0.33;;;0.33;;
9128;SDS011;4599;50.906;6.786;2022-12-29T00:37:10;1.03;;;0.40;;
9128;SDS011;4599;50.906;6.786;2022-12-29T00:41:12;0.30;;;0.30;;
9128;SDS011;4599;50.906;6.786;2022-12-29T00:45:15;0.57;;;0.50;;
9128;SDS011;4599;50.906;6.786;2022-12-29T00:49:16;0.47;;;0.40;;
9128;SDS011;4599;50.906;6.786;2022-12-29T00:53:18;0.40;;;0.40;;
9128;SDS011;4599;50.906;6.786;2022-12-29T00:57:19;0.30;;;0.30;;
9128;SDS011;4599;50.906;6.786;2022-12-29T01:01:22;0.40;;;0.40;;
9128;SDS011;4599;50.906;6.786;2022-12-29T01:05:24;0.20;;;0.20;;
9128;SDS011;4599;50.906;6.786;2022-12-29T01:09:25;2.00;;;0.30;;
9128;SDS011;4599;50.906;6.786;2022-12-29T01:13:27;0.30;;;0.30;;
9128;SDS011;4599;50.906;6.786;2022-12-29T01:17:30;0.37;;;0.37;;
9128;SDS011;4599;50.906;6.786;2022-12-29T01:21:32;0.40;;;0.30;;
9128;SDS011;4599;50.906;6.786;2022-12-29T01:25:34;0.30;;;0.30;;
9128;SDS011;4599;50.906;6.786;2022-12-29T01:29:35;0.40;;;0.40;;
9128;SDS011;4599;50.906;6.786;2022-12-29T01:33:38;0.30;;;0.30;;
9128;SDS011;4599;50.906;6.786;2022-12-29T01:37:40;0.47;;;0.47;;
9128;SDS011;4599;50.906;6.786;2022-12-29T01:41:42;0.40;;;0.40;;
9128;SDS011;4599;50.906;6.786;2022-12-29T01:45:44;0.67;;;0.57;;
9128;SDS011;4599;50.906;6.786;2022-12-29T01:49:54;1.13;;;0.70;;
9128;SDS011;4599;50.906;6.786;2022-12-29T01:53:58;1.00;;;0.50;;
9128;SDS011;4599;50.906;6.786;2022-12-29T01:58:04;0.53;;;0.53;;
9128;SDS011;4599;50.906;6.786;2022-12-29T02:02:07;0.60;;;0.60;;
9128;SDS011;4599;50.906;6.786;2022-12-29T02:06:11;0.80;;;0.53;;
9128;SDS011;4599;50.906;6.786;2022-12-29T02:10:17;1.53;;;0.70;;
9128;SDS011;4599;50.906;6.786;2022-12-29T02:14:21;1.00;;;0.70;;
9128;SDS011;4599;50.906;6.786;2022-12-29T02:18:25;1.03;;;0.67;;
9128;SDS011;4599;50.906;6.786;2022-12-29T02:22:41;0.93;;;0.70;;
9128;SDS011;4599;50.906;6.786;2022-12-29T02:27:08;3.83;;;0.60;;
9128;SDS011;4599;50.906;6.786;2022-12-29T02:31:26;1.63;;;0.80;;
9128;SDS011;4599;50.906;6.786;2022-12-29T02:35:34;0.90;;;0.60;;
9128;SDS011;4599;50.906;6.786;2022-12-29T02:39:40;1.10;;;0.70;;
9128;SDS011;4599;50.906;6.786;2022-12-29T02:43:47;1.20;;;0.80;;
9128;SDS011;4599;50.906;6.786;2022-12-29T02:47:56;0.70;;;0.60;;
9128;SDS011;4599;50.906;6.786;2022-12-29T02:52:06;0.93;;;0.60;;
9128;SDS011;4599;50.906;6.786;2022-12-29T02:56:12;0.87;;;0.50;;
9128;SDS011;4599;50.906;6.786;2022-12-29T03:00:14;2.93;;;0.83;;
9128;SDS011;4599;50.906;6.786;2022-12-29T03:04:21;1.53;;;0.70;;
9128;SDS011;4599;50.906;6.786;2022-12-29T03:08:38;0.60;;;0.60;;
9128;SDS011;4599;50.906;6.786;2022-12-29T03:12:46;0.50;;;0.50;;
9128;SDS011;4599;50.906;6.786;2022-12-29T03:16:52;0.50;;;0.50;;
9128;SDS011;4599;50.906;6.786;2022-12-29T03:21:00;0.50;;;0.50;;
9128;SDS011;4599;50.906;6.786;2022-12-29T03:25:08;2.37;;;0.80;;
9128;SDS011;4599;50.906;6.786;2022-12-29T03:29:11;0.50;;;0.50;;
9128;SDS011;4599;50.906;6.786;2022-12-29T03:33:15;1.60;;;0.60;;
9128;SDS011;4599;50.906;6.786;2022-12-29T03:37:22;1.67;;;0.50;;
9128;SDS011;4599;50.906;6.786;2022-12-29T03:41:28;0.60;;;0.50;;
9128;SDS011;4599;50.906;6.786;2022-12-29T03:45:32;0.47;;;0.47;;
9128;SDS011;4599;50.906;6.786;2022-12-29T03:49:34;0.73;;;0.60;;
9128;SDS011;4599;50.906;6.786;2022-12-29T03:53:37;0.97;;;0.50;;
9128;SDS011;4599;50.906;6.786;2022-12-29T03:57:38;0.63;;;0.60;;
9128;SDS011;4599;50.906;6.786;2022-12-29T04:01:39;1.17;;;0.83;;
9128;SDS011;4599;50.906;6.786;2022-12-29T04:05:41;0.70;;;0.70;;
9128;SDS011;4599;50.906;6.786;2022-12-29T04:09:44;1.30;;;0.80;;
9128;SDS011;4599;50.906;6.786;2022-12-29T04:13:45;0.67;;;0.67;;
9128;SDS011;4599;50.906;6.786;2022-12-29T04:17:47;0.70;;;0.70;;
9128;SDS011;4599;50.906;6.786;2022-12-29T04:21:48;0.67;;;0.67;;
9128;SDS011;4599;50.906;6.786;2022-12-29T04:25:51;0.97;;;0.60;;
9128;SDS011;4599;50.906;6.786;2022-12-29T04:29:53;0.97;;;0.90;;
9128;SDS011;4599;50.906;6.786;2022-12-29T04:33:54;0.63;;;0.63;;
9128;SDS011;4599;50.906;6.786;2022-12-29T04:37:55;6.03;;;0.80;;
9128;SDS011;4599;50.906;6.786;2022-12-29T04:41:58;2.07;;;0.70;;
9128;SDS011;4599;50.906;6.786;2022-12-29T04:46:00;0.73;;;0.60;;
9128;SDS011;4599;50.906;6.786;2022-12-29T04:50:01;2.27;;;0.67;;
9128;SDS011;4599;50.906;6.786;2022-12-29T04:54:03;1.23;;;0.70;;
9128;SDS011;4599;50.906;6.786;2022-12-29T04:58:06;0.77;;;0.50;;
9128;SDS011;4599;50.906;6.786;2022-12-29T05:02:07;1.27;;;0.70;;
9128;SDS011;4599;50.906;6.786;2022-12-29T05:06:09;1.30;;;0.73;;
9128;SDS011;4599;50.906;6.786;2022-12-29T05:10:10;1.50;;;0.63;;
9128;SDS011;4599;50.906;6.786;2022-12-29T05:14:13;0.53;;;0.53;;
9128;SDS011;4599;50.906;6.786;2022-12-29T05:18:15;1.23;;;0.60;;
9128;SDS011;4599;50.906;6.786;2022-12-29T05:22:17;0.50;;;0.50;;
9128;SDS011;4599;50.906;6.786;2022-12-29T05:26:18;0.60;;;0.60;;
9128;SDS011;4599;50.906;6.786;2022-12-29T05:30:21;0.93;;;0.60;;
9128;SDS011;4599;50.906;6.786;2022-12-29T05:34:23;0.40;;;0.40;;
9128;SDS011;4599;50.906;6.786;2022-12-29T05:38:24;0.67;;;0.53;;
9128;SDS011;4599;50.906;6.786;2022-12-29T05:42:26;1.87;;;0.50;;
9128;SDS011;4599;50.906;6.786;2022-12-29T05:46:29;1.10;;;0.43;;
9128;SDS011;4599;50.906;6.786;2022-12-29T05:50:30;2.00;;;0.77;;
9128;SDS011;4599;50.906;6.786;2022-12-29T05:54:32;1.23;;;0.50;;
9128;SDS011;4599;50.906;6.786;2022-12-29T05:58:33;0.67;;;0.60;;
9128;SDS011;4599;50.906;6.786;2022-12-29T06:02:36;1.17;;;0.60;;
9128;SDS011;4599;50.906;6.786;2022-12-29T06:06:38;0.50;;;0.50;;
9128;SDS011;4599;50.906;6.786;2022-12-29T06:10:39;2.63;;;0.70;;
9128;SDS011;4599;50.906;6.786;2022-12-29T06:14:41;0.70;;;0.50;;
9128;SDS011;4599;50.906;6.786;2022-12-29T06:18:43;0.60;;;0.60;;
9128;SDS011;4599;50.906;6.786;2022-12-29T06:22:46;3.60;;;0.70;;
9128;SDS011;4599;50.906;6.786;2022-12-29T06:26:47;0.63;;;0.60;;
9128;SDS011;4599;50.906;6.786;2022-12-29T06:30:49;0.83;;;0.60;;
9128;SDS011;4599;50.906;6.786;2022-12-29T06:34:52;2.00;;;0.50;;
9128;SDS011;4599;50.906;6.786;2022-12-29T06:38:53;2.63;;;0.80;;
9128;SDS011;4599;50.906;6.786;2022-12-29T06:42:55;2.30;;;0.53;;
9128;SDS011;4599;50.906;6.786;2022-12-29T06:46:56;1.07;;;0.67;;
9128;SDS011;4599;50.906;6.786;2022-12-29T06:50:59;1.37;;;0.50;;
9128;SDS011;4599;50.906;6.786;2022-12-29T06:55:00;0.70;;;0.30;;
9128;SDS011;4599;50.906;6.786;2022-12-29T06:59:02;0.73;;;0.40;;
9128;SDS011;4599;50.906;6.786;2022-12-29T07:03:03;1.47;;;0.60;;
9128;SDS011;4599;50.906;6.786;2022-12-29T07:07:06;1.60;;;0.67;;
9128;SDS011;4599;50.906;6.786;2022-12-29T07:11:08;3.00;;;0.60;;
9128;SDS011;4599;50.906;6.786;2022-12-29T07:15:10;2.30;;;0.70;;
9128;SDS011;4599;50.906;6.786;2022-12-29T07:19:12;2.43;;;1.00;;
9128;SDS011;4599;50.906;6.786;2022-12-29T07:23:15;1.20;;;0.67;;
9128;SDS011;4599;50.906;6.786;2022-12-29T07:27:17;1.40;;;0.73;;
9128;SDS011;4599;50.906;6.786;2022-12-29T07:31:19;1.13;;;0.60;;
9128;SDS011;4599;50.906;6.786;2022-12-29T07:35:22;1.87;;;0.83;;
9128;SDS011;4599;50.906;6.786;2022-12-29T07:39:24;1.20;;;0.90;;
9128;SDS011;4599;50.906;6.786;2022-12-29T07:43:26;2.67;;;0.80;;
9128;SDS011;4599;50.906;6.786;2022-12-29T07:47:28;1.63;;;0.80;;
9128;SDS011;4599;50.906;6.786;2022-12-29T07:51:29;3.10;;;1.10;;
9128;SDS011;4599;50.906;6.786;2022-12-29T07:55:32;3.33;;;0.90;;
9128;SDS011;4599;50.906;6.786;2022-12-29T07:59:34;3.13;;;1.00;;
9128;SDS011;4599;50.906;6.786;2022-12-29T08:03:35;6.63;;;1.40;;
9128;SDS011;4599;50.906;6.786;2022-12-29T08:07:37;1.93;;;0.77;;
9128;SDS011;4599;50.906;6.786;2022-12-29T08:11:40;3.40;;;1.10;;
9128;SDS011;4599;50.906;6.786;2022-12-29T08:15:41;3.33;;;1.00;;
9128;SDS011;4599;50.906;6.786;2022-12-29T08:19:43;3.77;;;1.20;;
9128;SDS011;4599;50.906;6.786;2022-12-29T08:23:44;4.77;;;1.17;;
9128;SDS011;4599;50.906;6.786;2022-12-29T08:27:47;2.83;;;0.83;;
9128;SDS011;4599;50.906;6.786;2022-12-29T08:31:49;3.70;;;1.10;;
9128;SDS011;4599;50.906;6.786;2022-12-29T08:35:50;4.63;;;1.23;;
9128;SDS011;4599;50.906;6.786;2022-12-29T08:39:52;3.83;;;1.00;;
9128;SDS011;4599;50.906;6.786;2022-12-29T08:43:54;4.53;;;1.40;;
9128;SDS011;4599;50.906;6.786;2022-12-29T08:47:56;3.67;;;1.13;;
9128;SDS011;4599;50.906;6.786;2022-12-29T08:52:07;5.33;;;1.10;;
9128;SDS011;4599;50.906;6.786;2022-12-29T08:56:09;5.87;;;1.20;;
9128;SDS011;4599;50.906;6.786;2022-12-29T09:00:12;4.70;;;1.20;;
9128;SDS011;4599;50.906;6.786;2022-12-29T09:04:15;4.20;;;0.90;;
9128;SDS011;4599;50.906;6.786;2022-12-29T09:08:18;3.37;;;1.17;;
9128;SDS011;4599;50.906;6.786;2022-12-29T09:12:25;3.07;;;1.13;;
9128;SDS011;4599;50.906;6.786;2022-12-29T09:16:33;3.27;;;1.20;;
9128;SDS011;4599;50.906;6.786;2022-12-29T09:20:35;8.50;;;1.20;;
9128;SDS011;4599;50.906;6.786;2022-12-29T09:24:37;4.47;;;1.40;;
9128;SDS011;4599;50.906;6.786;2022-12-29T09:28:38;5.07;;;1.63;;
9128;SDS011;4599;50.906;6.786;2022-12-29T09:32:41;3.90;;;1.43;;
9128;SDS011;4599;50.906;6.786;2022-12-29T09:36:45;4.00;;;1.20;;
9128;SDS011;4599;50.906;6.786;2022-12-29T09:40:49;6.10;;;1.40;;
9128;SDS011;4599;50.906;6.786;2022-12-29T09:44:55;4.97;;;1.40;;
9128;SDS011;4599;50.906;6.786;2022-12-29T09:49:14;4.33;;;1.30;;
9128;SDS011;4599;50.906;6.786;2022-12-29T09:53:24;5.43;;;1.53;;
9128;SDS011;4599;50.906;6.786;2022-12-29T09:57:31;5.60;;;1.30;;
9128;SDS011;4599;50.906;6.786;2022-12-29T10:01:38;6.37;;;1.50;;
9128;SDS011;4599;50.906;6.786;2022-12-29T10:05:48;5.20;;;1.50;;
9128;SDS011;4599;50.906;6.786;2022-12-29T10:09:56;4.57;;;1.33;;
9128;SDS011;4599;50.906;6.786;2022-12-29T10:14:10;5.73;;;1.60;;
9128;SDS011;4599;50.906;6.786;2022-12-29T10:18:27;4.97;;;1.40;;
9128;SDS011;4599;50.906;6.786;2022-12-29T10:22:58;6.90;;;1.50;;
9128;SDS011;4599;50.906;6.786;2022-12-29T10:27:10;7.17;;;1.53;;
9128;SDS011;4599;50.906;6.786;2022-12-29T10:31:15;5.27;;;1.60;;
9128;SDS011;4599;50.906;6.786;2022-12-29T10:35:18;8.23;;;1.60;;
9128;SDS011;4599;50.906;6.786;2022-12-29T10:39:23;5.53;;;1.40;;
9128;SDS011;4599;50.906;6.786;2022-12-29T10:43:33;4.93;;;1.17;;
9128;SDS011;4599;50.906;6.786;2022-12-29T10:47:43;3.63;;;1.30;;
9128;SDS011;4599;50.906;6.786;2022-12-29T10:51:52;5.30;;;1.40;;
9128;SDS011;4599;50.906;6.786;2022-12-29T10:55:59;3.77;;;1.20;;
9128;SDS011;4599;50.906;6.786;2022-12-29T11:00:05;3.90;;;1.43;;
9128;SDS011;4599;50.906;6.786;2022-12-29T11:04:17;7.00;;;1.60;;
9128;SDS011;4599;50.906;6.786;2022-12-29T11:08:30;6.50;;;1.93;;
9128;SDS011;4599;50.906;6.786;2022-12-29T11:12:35;6.20;;;1.50;;
9128;SDS011;4599;50.906;6.786;2022-12-29T11:16:37;4.70;;;1.53;;
9128;SDS011;4599;50.906;6.786;2022-12-29T11:20:39;6.20;;;1.57;;
9128;SDS011;4599;50.906;6.786;2022-12-29T11:24:43;5.43;;;1.30;;
9128;SDS011;4599;50.906;6.786;2022-12-29T11:29:02;5.73;;;1.30;;
9128;SDS011;4599;50.906;6.786;2022-12-29T11:33:19;6.37;;;1.57;;
9128;SDS011;4599;50.906;6.786;2022-12-29T11:37:23;7.00;;;1.57;;
9128;SDS011;4599;50.906;6.786;2022-12-29T11:41:35;5.87;;;1.50;;
9128;SDS011;4599;50.906;6.786;2022-12-29T11:45:38;9.00;;;1.60;;
9128;SDS011;4599;50.906;6.786;2022-12-29T11:49:49;4.13;;;1.33;;
9128;SDS011;4599;50.906;6.786;2022-12-29T11:53:52;4.43;;;1.30;;
9128;SDS011;4599;50.906;6.786;2022-12-29T11:57:57;5.83;;;1.50;;
9128;SDS011;4599;50.906;6.786;2022-12-29T12:02:03;4.83;;;1.50;;
9128;SDS011;4599;50.906;6.786;2022-12-29T12:06:19;5.03;;;1.73;;
9128;SDS011;4599;50.906;6.786;2022-12-29T12:10:23;4.67;;;1.30;;
9128;SDS011;4599;50.906;6.786;2022-12-29T12:14:30;5.30;;;1.30;;
9128;SDS011;4599;50.906;6.786;2022-12-29T12:18:39;3.80;;;1.50;;
9128;SDS011;4599;50.906;6.786;2022-12-29T12:22:46;5.73;;;1.47;;
9128;SDS011;4599;50.906;6.786;2022-12-29T12:26:57;5.67;;;1.50;;
9128;SDS011;4599;50.906;6.786;2022-12-29T12:31:02;4.47;;;1.30;;
9128;SDS011;4599;50.906;6.786;2022-12-29T12:35:10;6.30;;;1.57;;
9128;SDS011;4599;50.906;6.786;2022-12-29T12:39:20;4.40;;;1.50;;
9128;SDS011;4599;50.906;6.786;2022-12-29T12:43:35;8.83;;;1.67;;
9128;SDS011;4599;50.906;6.786;2022-12-29T12:47:44;6.10;;;1.57;;
9128;SDS011;4599;50.906;6.786;2022-12-29T12:52:00;7.17;;;1.47;;
9128;SDS011;4599;50.906;6.786;2022-12-29T12:56:15;6.27;;;2.27;;
9128;SDS011;4599;50.906;6.786;2022-12-29T13:00:27;6.53;;;1.73;;
9128;SDS011;4599;50.906;6.786;2022-12-29T13:04:45;6.13;;;1.43;;
9128;SDS011;4599;50.906;6.786;2022-12-29T13:09:02;6.43;;;1.60;;
9128;SDS011;4599;50.906;6.786;2022-12-29T13:13:25;20.13;;;1.77;;
9128;SDS011;4599;50.906;6.786;2022-12-29T13:17:36;6.23;;;1.70;;
9128;SDS011;4599;50.906;6.786;2022-12-29T13:21:49;4.10;;;1.27;;
9128;SDS011;4599;50.906;6.786;2022-12-29T13:26:09;5.70;;;1.50;;
9128;SDS011;4599;50.906;6.786;2022-12-29T13:30:17;4.70;;;1.40;;
9128;SDS011;4599;50.906;6.786;2022-12-29T13:34:23;5.83;;;1.40;;
9128;SDS011;4599;50.906;6.786;2022-12-29T13:38:33;6.83;;;1.40;;
9128;SDS011;4599;50.906;6.786;2022-12-29T13:42:38;6.53;;;2.00;;
9128;SDS011;4599;50.906;6.786;2022-12-29T13:46:42;5.13;;;1.60;;
9128;SDS011;4599;50.906;6.786;2022-12-29T13:50:47;5.97;;;1.40;;
9128;SDS011;4599;50.906;6.786;2022-12-29T13:54:55;8.43;;;1.47;;
9128;SDS011;4599;50.906;6.786;2022-12-29T13:59:05;5.13;;;1.50;;
9128;SDS011;4599;50.906;6.786;2022-12-29T14:03:24;6.60;;;1.90;;
9128;SDS011;4599;50.906;6.786;2022-12-29T14:07:42;5.63;;;1.60;;
9128;SDS011;4599;50.906;6.786;2022-12-29T14:11:43;5.60;;;1.43;;
9128;SDS011;4599;50.906;6.786;2022-12-29T14:15:50;6.23;;;1.50;;
9128;SDS011;4599;50.906;6.786;2022-12-29T14:19:52;5.63;;;1.50;;
9128;SDS011;4599;50.906;6.786;2022-12-29T14:24:00;5.73;;;1.63;;
9128;SDS011;4599;50.906;6.786;2022-12-29T14:28:35;4.30;;;1.40;;
9128;SDS011;4599;50.906;6.786;2022-12-29T14:32:39;2.73;;;1.00;;
9128;SDS011;4599;50.906;6.786;2022-12-29T14:36:41;6.40;;;1.70;;
9128;SDS011;4599;50.906;6.786;2022-12-29T14:40:43;4.93;;;1.30;;
9128;SDS011;4599;50.906;6.786;2022-12-29T14:44:46;5.07;;;1.50;;
9128;SDS011;4599;50.906;6.786;2022-12-29T14:48:55;5.33;;;1.60;;
9128;SDS011;4599;50.906;6.786;2022-12-29T14:52:59;5.83;;;1.60;;
9128;SDS011;4599;50.906;6.786;2022-12-29T14:57:05;5.43;;;1.50;;
9128;SDS011;4599;50.906;6.786;2022-12-29T15:01:17;4.60;;;1.50;;
9128;SDS011;4599;50.906;6.786;2022-12-29T15:05:29;3.93;;;1.40;;
9128;SDS011;4599;50.906;6.786;2022-12-29T15:09:35;8.53;;;1.47;;
9128;SDS011;4599;50.906;6.786;2022-12-29T15:13:40;5.03;;;1.70;;
9128;SDS011;4599;50.906;6.786;2022-12-29T15:17:43;6.07;;;1.60;;
9128;SDS011;4599;50.906;6.786;2022-12-29T15:21:46;4.33;;;1.60;;
9128;SDS011;4599;50.906;6.786;2022-12-29T15:25:49;5.60;;;1.20;;
9128;SDS011;4599;50.906;6.786;2022-12-29T15:29:57;6.07;;;1.53;;
9128;SDS011;4599;50.906;6.786;2022-12-29T15:34:01;6.00;;;1.67;;
9128;SDS011;4599;50.906;6.786;2022-12-29T15:38:16;4.67;;;1.43;;
9128;SDS011;4599;50.906;6.786;2022-12-29T15:42:32;6.77;;;1.60;;
9128;SDS011;4599;50.906;6.786;2022-12-29T15:46:47;4.03;;;1.60;;
9128;SDS011;4599;50.906;6.786;2022-12-29T15:50:48;10.10;;;1.90;;
9128;SDS011;4599;50.906;6.786;2022-12-29T15:54:52;14.13;;;1.97;;
9128;SDS011;4599;50.906;6.786;2022-12-29T15:58:54;6.20;;;1.80;;
9128;SDS011;4599;50.906;6.786;2022-12-29T16:02:57;5.97;;;1.60;;
9128;SDS011;4599;50.906;6.786;2022-12-29T16:07:01;5.90;;;1.90;;
9128;SDS011;4599;50.906;6.786;2022-12-29T16:11:07;10.30;;;1.90;;
9128;SDS011;4599;50.906;6.786;2022-12-29T16:15:21;5.97;;;1.57;;
9128;SDS011;4599;50.906;6.786;2022-12-29T16:19:24;6.07;;;1.63;;
9128;SDS011;4599;50.906;6.786;2022-12-29T16:23:29;8.90;;;1.97;;
9128;SDS011;4599;50.906;6.786;2022-12-29T16:27:34;9.07;;;2.07;;
9128;SDS011;4599;50.906;6.786;2022-12-29T16:31:47;10.87;;;1.60;;
9128;SDS011;4599;50.906;6.786;2022-12-29T16:35:51;6.60;;;1.70;;
9128;SDS011;4599;50.906;6.786;2022-12-29T16:39:53;6.90;;;1.70;;
9128;SDS011;4599;50.906;6.786;2022-12-29T16:48:17;6.43;;;1.87;;
9128;SDS011;4599;50.906;6.786;2022-12-29T16:52:22;10.00;;;1.90;;
9128;SDS011;4599;50.906;6.786;2022-12-29T16:56:27;7.53;;;2.10;;
9128;SDS011;4599;50.906;6.786;2022-12-29T17:00:34;5.67;;;1.80;;
9128;SDS011;4599;50.906;6.786;2022-12-29T17:04:37;6.53;;;1.50;;
9128;SDS011;4599;50.906;6.786;2022-12-29T17:08:39;7.23;;;1.67;;
9128;SDS011;4599;50.906;6.786;2022-12-29T17:12:42;9.27;;;1.90;;
9128;SDS011;4599;50.906;6.786;2022-12-29T17:16:46;7.73;;;1.90;;
9128;SDS011;4599;50.906;6.786;2022-12-29T17:20:48;6.00;;;1.80;;
9128;SDS011;4599;50.906;6.786;2022-12-29T17:24:50;7.33;;;1.70;;
9128;SDS011;4599;50.906;6.786;2022-12-29T17:28:51;6.83;;;1.73;;
9128;SDS011;4599;50.906;6.786;2022-12-29T17:32:55;8.57;;;1.97;;
9128;SDS011;4599;50.906;6.786;2022-12-29T17:37:00;8.03;;;1.77;;
9128;SDS011;4599;50.906;6.786;2022-12-29T17:41:02;4.03;;;1.57;;
9128;SDS011;4599;50.906;6.786;2022-12-29T17:45:04;9.83;;;1.73;;
9128;SDS011;4599;50.906;6.786;2022-12-29T17:49:09;6.00;;;1.57;;
9128;SDS011;4599;50.906;6.786;2022-12-29T17:53:14;9.80;;;2.13;;
9128;SDS011;4599;50.906;6.786;2022-12-29T17:57:19;7.67;;;1.73;;
9128;SDS011;4599;50.906;6.786;2022-12-29T18:01:21;8.77;;;1.90;;
9128;SDS011;4599;50.906;6.786;2022-12-29T18:05:25;7.77;;;2.13;;
9128;SDS011;4599;50.906;6.786;2022-12-29T18:09:28;13.43;;;2.40;;
9128;SDS011;4599;50.906;6.786;2022-12-29T18:13:30;7.90;;;2.30;;
9128;SDS011;4599;50.906;6.786;2022-12-29T18:17:44;7.93;;;1.90;;
9128;SDS011;4599;50.906;6.786;2022-12-29T18:21:47;8.43;;;2.10;;
9128;SDS011;4599;50.906;6.786;2022-12-29T18:25:49;7.70;;;2.10;;
9128;SDS011;4599;50.906;6.786;2022-12-29T18:29:54;9.47;;;1.93;;
9128;SDS011;4599;50.906;6.786;2022-12-29T18:33:56;10.97;;;2.27;;
9128;SDS011;4599;50.906;6.786;2022-12-29T18:38:00;13.83;;;2.43;;
9128;SDS011;4599;50.906;6.786;2022-12-29T18:42:01;12.77;;;2.30;;
9128;SDS011;4599;50.906;6.786;2022-12-29T18:46:03;8.60;;;1.97;;
9128;SDS011;4599;50.906;6.786;2022-12-29T18:50:05;9.00;;;2.40;;
9128;SDS011;4599;50.906;6.786;2022-12-29T18:54:09;6.57;;;1.70;;
9128;SDS011;4599;50.906;6.786;2022-12-29T18:58:22;7.60;;;2.10;;
9128;SDS011;4599;50.906;6.786;2022-12-29T19:02:28;12.37;;;2.27;;
9128;SDS011;4599;50.906;6.786;2022-12-29T19:06:29;11.47;;;2.17;;
9128;SDS011;4599;50.906;6.786;2022-12-29T19:10:32;7.03;;;2.13;;
9128;SDS011;4599;50.906;6.786;2022-12-29T19:14:34;6.10;;;2.07;;
9128;SDS011;4599;50.906;6.786;2022-12-29T19:18:35;9.20;;;2.00;;
9128;SDS011;4599;50.906;6.786;2022-12-29T19:22:46;7.27;;;1.83;;
9128;SDS011;4599;50.906;6.786;2022-12-29T19:26:49;9.50;;;2.47;;
9128;SDS011;4599;50.906;6.786;2022-12-29T19:30:51;6.87;;;1.97;;
9128;SDS011;4599;50.906;6.786;2022-12-29T19:34:57;8.73;;;1.90;;
9128;SDS011;4599;50.906;6.786;2022-12-29T19:38:58;7.43;;;1.67;;
9128;SDS011;4599;50.906;6.786;2022-12-29T19:43:01;4.43;;;1.47;;
9128;SDS011;4599;50.906;6.786;2022-12-29T19:47:03;3.60;;;1.53;;
9128;SDS011;4599;50.906;6.786;2022-12-29T19:51:05;10.60;;;1.93;;
9128;SDS011;4599;50.906;6.786;2022-12-29T19:55:08;12.73;;;1.93;;
9128;SDS011;4599;50.906;6.786;2022-12-29T19:59:13;4.00;;;1.50;;
9128;SDS011;4599;50.906;6.786;2022-12-29T20:03:14;2.97;;;1.20;;
9128;SDS011;4599;50.906;6.786;2022-12-29T20:07:16;5.37;;;1.50;;
9128;SDS011;4599;50.906;6.786;2022-12-29T20:11:18;6.10;;;1.50;;
9128;SDS011;4599;50.906;6.786;2022-12-29T20:15:21;3.77;;;1.57;;
9128;SDS011;4599;50.906;6.786;2022-12-29T20:19:23;4.77;;;1.60;;
9128;SDS011;4599;50.906;6.786;2022-12-29T20:23:24;5.03;;;1.73;;
9128;SDS011;4599;50.906;6.786;2022-12-29T20:27:26;8.30;;;2.27;;
9128;SDS011;4599;50.906;6.786;2022-12-29T20:31:29;8.43;;;1.93;;
9128;SDS011;4599;50.906;6.786;2022-12-29T20:35:32;8.03;;;1.83;;
9128;SDS011;4599;50.906;6.786;2022-12-29T20:39:34;10.67;;;2.20;;
9128;SDS011;4599;50.906;6.786;2022-12-29T20:43:36;6.93;;;1.90;;
9128;SDS011;4599;50.906;6.786;2022-12-29T20:47:39;7.07;;;2.03;;
9128;SDS011;4599;50.906;6.786;2022-12-29T20:51:41;12.13;;;2.33;;
9128;SDS011;4599;50.906;6.786;2022-12-29T20:56:03;12.30;;;2.40;;
9128;SDS011;4599;50.906;6.786;2022-12-29T21:00:07;13.17;;;2.30;;
9128;SDS011;4599;50.906;6.786;2022-12-29T21:04:11;11.00;;;2.50;;
9128;SDS011;4599;50.906;6.786;2022-12-29T21:08:13;10.27;;;2.00;;
9128;SDS011;4599;50.906;6.786;2022-12-29T21:12:14;9.40;;;2.07;;
9128;SDS011;4599;50.906;6.786;2022-12-29T21:16:16;7.63;;;2.30;;
9128;SDS011;4599;50.906;6.786;2022-12-29T21:20:19;11.80;;;2.70;;
9128;SDS011;4599;50.906;6.786;2022-12-29T21:24:20;10.40;;;2.47;;
9128;SDS011;4599;50.906;6.786;2022-12-29T21:28:22;11.33;;;2.37;;
9128;SDS011;4599;50.906;6.786;2022-12-29T21:32:24;8.77;;;2.23;;
9128;SDS011;4599;50.906;6.786;2022-12-29T21:36:27;7.73;;;2.27;;
9128;SDS011;4599;50.906;6.786;2022-12-29T21:40:30;10.47;;;2.20;;
9128;SDS011;4599;50.906;6.786;2022-12-29T21:44:31;12.00;;;2.33;;
9128;SDS011;4599;50.906;6.786;2022-12-29T21:48:33;8.77;;;1.97;;
9128;SDS011;4599;50.906;6.786;2022-12-29T21:52:36;8.60;;;2.13;;
9128;SDS011;4599;50.906;6.786;2022-12-29T21:56:37;9.57;;;2.07;;
9128;SDS011;4599;50.906;6.786;2022-12-29T22:00:39;9.37;;;2.13;;
9128;SDS011;4599;50.906;6.786;2022-12-29T22:04:40;10.60;;;2.63;;
9128;SDS011;4599;50.906;6.786;2022-12-29T22:08:44;11.10;;;2.40;;
9128;SDS011;4599;50.906;6.786;2022-12-29T22:12:45;10.97;;;2.10;;
9128;SDS011;4599;50.906;6.786;2022-12-29T22:16:47;9.30;;;2.13;;
9128;SDS011;4599;50.906;6.786;2022-12-29T22:20:48;11.37;;;1.83;;
9128;SDS011;4599;50.906;6.786;2022-12-29T22:24:51;12.40;;;2.47;;
9128;SDS011;4599;50.906;6.786;2022-12-29T22:28:52;13.33;;;2.30;;
9128;SDS011;4599;50.906;6.786;2022-12-29T22:32:55;8.57;;;2.20;;
9128;SDS011;4599;50.906;6.786;2022-12-29T22:36:57;14.60;;;2.67;;
9128;SDS011;4599;50.906;6.786;2022-12-29T22:40:59;12.17;;;2.00;;
9128;SDS011;4599;50.906;6.786;2022-12-29T22:45:01;9.33;;;2.23;;
9128;SDS011;4599;50.906;6.786;2022-12-29T22:49:02;13.80;;;2.40;;
9128;SDS011;4599;50.906;6.786;2022-12-29T22:53:04;5.53;;;1.77;;
9128;SDS011;4599;50.906;6.786;2022-12-29T22:57:07;11.47;;;2.60;;
9128;SDS011;4599;50.906;6.786;2022-12-29T23:01:08;4.67;;;1.70;;
9128;SDS011;4599;50.906;6.786;2022-12-29T23:05:11;10.43;;;2.53;;
9128;SDS011;4599;50.906;6.786;2022-12-29T23:09:14;8.60;;;1.67;;
9128;SDS011;4599;50.906;6.786;2022-12-29T23:13:18;10.37;;;1.90;;
9128;SDS011;4599;50.906;6.786;2022-12-29T23:17:20;11.57;;;2.20;;
9128;SDS011;4599;50.906;6.786;2022-12-29T23:21:21;7.77;;;2.07;;
9128;SDS011;4599;50.906;6.786;2022-12-29T23:25:23;6.77;;;1.93;;
9128;SDS011;4599;50.906;6.786;2022-12-29T23:29:26;12.33;;;2.10;;
9128;SDS011;4599;50.906;6.786;2022-12-29T23:33:27;6.93;;;2.17;;
9128;SDS011;4599;50.906;6.786;2022-12-29T23:37:28;9.33;;;3.03;;
9128;SDS011;4599;50.906;6.786;2022-12-29T23:41:30;8.03;;;1.90;;
9128;SDS011;4599;50.906;6.786;2022-12-29T23:45:35;11.07;;;2.20;;
9128;SDS011;4599;50.906;6.786;2022-12-29T23:49:36;11.90;;;2.50;;
9128;SDS011;4599;50.906;6.786;2022-12-29T23:53:39;7.53;;;2.07;;
9128;SDS011;4599;50.906;6.786;2022-12-29T23:57:41;10.27;;;2.10;;
